sensor_id;sensor_type;location;lat;lon;timestamp;P1;durP1;ratioP1;P2;durP2;ratioP2
25231;SDS011;13176;51.140;6.290;2022-09-09T00:01:28;84.05;;;79.05;;
25231;SDS011;13176;51.140;6.290;2022-09-09T00:03:58;85.70;;;80.30;;
25231;SDS011;13176;51.140;6.290;2022-09-09T00:06:30;86.32;;;81.28;;
25231;SDS011;13176;51.140;6.290;2022-09-09T00:09:04;85.90;;;80.93;;
25231;SDS011;13176;51.140;6.290;2022-09-09T00:14:56;81.15;;;76.25;;
25231;SDS011;13176;51.140;6.290;2022-09-09T00:17:33;83.70;;;78.80;;
25231;SDS011;13176;51.140;6.290;2022-09-09T00:20:11;83.68;;;78.47;;
25231;SDS011;13176;51.140;6.290;2022-09-09T00:22:42;85.53;;;80.40;;
25231;SDS011;13176;51.140;6.290;2022-09-09T00:25:19;86.47;;;81.53;;
25231;SDS011;13176;51.140;6.290;2022-09-09T00:27:55;85.05;;;79.95;;
25231;SDS011;13176;51.140;6.290;2022-09-09T00:32:54;88.28;;;82.88;;
25231;SDS011;13176;51.140;6.290;2022-09-09T00:35:29;82.28;;;77.50;;
25231;SDS011;13176;51.140;6.290;2022-09-09T00:38:03;89.15;;;83.85;;
25231;SDS011;13176;51.140;6.290;2022-09-09T00:40:38;84.20;;;79.38;;
25231;SDS011;13176;51.140;6.290;2022-09-09T00:57:04;87.00;;;81.70;;
25231;SDS011;13176;51.140;6.290;2022-09-09T01:02:22;91.35;;;86.05;;
25231;SDS011;13176;51.140;6.290;2022-09-09T01:05:00;85.68;;;80.25;;
25231;SDS011;13176;51.140;6.290;2022-09-09T01:07:53;83.10;;;77.80;;
25231;SDS011;13176;51.140;6.290;2022-09-09T01:11:09;81.35;;;76.35;;
25231;SDS011;13176;51.140;6.290;2022-09-09T01:13:24;80.40;;;75.85;;
25231;SDS011;13176;51.140;6.290;2022-09-09T01:16:03;83.70;;;78.80;;
25231;SDS011;13176;51.140;6.290;2022-09-09T01:18:33;86.75;;;81.10;;
25231;SDS011;13176;51.140;6.290;2022-09-09T01:21:04;84.72;;;79.82;;
25231;SDS011;13176;51.140;6.290;2022-09-09T01:26:34;87.80;;;82.05;;
25231;SDS011;13176;51.140;6.290;2022-09-09T01:29:06;84.82;;;79.63;;
25231;SDS011;13176;51.140;6.290;2022-09-09T01:34:27;86.55;;;81.47;;
25231;SDS011;13176;51.140;6.290;2022-09-09T01:37:10;84.88;;;79.95;;
25231;SDS011;13176;51.140;6.290;2022-09-09T01:39:38;83.50;;;78.45;;
25231;SDS011;13176;51.140;6.290;2022-09-09T01:42:09;89.70;;;84.32;;
25231;SDS011;13176;51.140;6.290;2022-09-09T01:44:37;83.63;;;78.60;;
25231;SDS011;13176;51.140;6.290;2022-09-09T01:47:04;82.93;;;77.93;;
25231;SDS011;13176;51.140;6.290;2022-09-09T01:49:32;85.13;;;79.93;;
25231;SDS011;13176;51.140;6.290;2022-09-09T01:51:58;87.45;;;82.07;;
25231;SDS011;13176;51.140;6.290;2022-09-09T01:54:26;85.45;;;80.55;;
25231;SDS011;13176;51.140;6.290;2022-09-09T02:02:36;86.85;;;81.78;;
25231;SDS011;13176;51.140;6.290;2022-09-09T02:08:14;87.32;;;82.05;;
25231;SDS011;13176;51.140;6.290;2022-09-09T02:11:28;89.57;;;84.30;;
25231;SDS011;13176;51.140;6.290;2022-09-09T02:13:37;90.78;;;85.43;;
25231;SDS011;13176;51.140;6.290;2022-09-09T02:16:08;86.20;;;81.10;;
25231;SDS011;13176;51.140;6.290;2022-09-09T02:18:49;86.43;;;81.18;;
25231;SDS011;13176;51.140;6.290;2022-09-09T02:21:39;88.03;;;82.65;;
25231;SDS011;13176;51.140;6.290;2022-09-09T02:24:09;85.78;;;80.65;;
25231;SDS011;13176;51.140;6.290;2022-09-09T02:26:40;87.25;;;82.07;;
25231;SDS011;13176;51.140;6.290;2022-09-09T02:29:10;84.32;;;79.25;;
25231;SDS011;13176;51.140;6.290;2022-09-09T02:31:41;90.30;;;84.97;;
25231;SDS011;13176;51.140;6.290;2022-09-09T02:34:10;87.95;;;82.53;;
25231;SDS011;13176;51.140;6.290;2022-09-09T02:36:38;90.20;;;84.80;;
25231;SDS011;13176;51.140;6.290;2022-09-09T02:39:09;83.25;;;78.18;;
25231;SDS011;13176;51.140;6.290;2022-09-09T02:41:37;86.82;;;81.50;;
25231;SDS011;13176;51.140;6.290;2022-09-09T02:44:13;89.85;;;84.70;;
25231;SDS011;13176;51.140;6.290;2022-09-09T02:49:09;87.80;;;82.28;;
25231;SDS011;13176;51.140;6.290;2022-09-09T02:52:00;88.70;;;83.32;;
25231;SDS011;13176;51.140;6.290;2022-09-09T02:54:32;93.15;;;87.47;;
25231;SDS011;13176;51.140;6.290;2022-09-09T02:59:32;90.45;;;85.20;;
25231;SDS011;13176;51.140;6.290;2022-09-09T03:01:59;94.45;;;88.75;;
25231;SDS011;13176;51.140;6.290;2022-09-09T03:04:26;91.35;;;85.90;;
25231;SDS011;13176;51.140;6.290;2022-09-09T03:06:52;94.18;;;88.45;;
25231;SDS011;13176;51.140;6.290;2022-09-09T03:09:19;90.07;;;84.70;;
25231;SDS011;13176;51.140;6.290;2022-09-09T03:11:45;91.32;;;85.72;;
25231;SDS011;13176;51.140;6.290;2022-09-09T03:14:12;100.57;;;94.43;;
25231;SDS011;13176;51.140;6.290;2022-09-09T03:16:38;84.93;;;79.93;;
25231;SDS011;13176;51.140;6.290;2022-09-09T03:19:05;89.20;;;83.88;;
25231;SDS011;13176;51.140;6.290;2022-09-09T03:21:32;88.07;;;82.65;;
25231;SDS011;13176;51.140;6.290;2022-09-09T03:23:58;86.60;;;81.47;;
25231;SDS011;13176;51.140;6.290;2022-09-09T03:26:25;85.80;;;80.63;;
25231;SDS011;13176;51.140;6.290;2022-09-09T03:28:51;93.00;;;87.10;;
25231;SDS011;13176;51.140;6.290;2022-09-09T03:31:19;92.25;;;86.68;;
25231;SDS011;13176;51.140;6.290;2022-09-09T03:33:45;91.22;;;85.60;;
25231;SDS011;13176;51.140;6.290;2022-09-09T03:36:12;98.32;;;92.38;;
25231;SDS011;13176;51.140;6.290;2022-09-09T03:38:38;86.35;;;80.88;;
25231;SDS011;13176;51.140;6.290;2022-09-09T03:41:05;89.78;;;84.60;;
25231;SDS011;13176;51.140;6.290;2022-09-09T03:43:32;88.97;;;83.50;;
25231;SDS011;13176;51.140;6.290;2022-09-09T03:45:58;92.90;;;86.70;;
25231;SDS011;13176;51.140;6.290;2022-09-09T03:48:25;91.15;;;85.55;;
25231;SDS011;13176;51.140;6.290;2022-09-09T03:50:54;92.50;;;86.55;;
25231;SDS011;13176;51.140;6.290;2022-09-09T03:53:22;92.63;;;86.82;;
25231;SDS011;13176;51.140;6.290;2022-09-09T03:55:51;86.68;;;81.55;;
25231;SDS011;13176;51.140;6.290;2022-09-09T03:58:25;87.63;;;82.43;;
25231;SDS011;13176;51.140;6.290;2022-09-09T04:00:54;97.82;;;91.65;;
25231;SDS011;13176;51.140;6.290;2022-09-09T04:03:22;88.20;;;82.88;;
25231;SDS011;13176;51.140;6.290;2022-09-09T04:05:54;84.35;;;79.38;;
25231;SDS011;13176;51.140;6.290;2022-09-09T04:08:21;90.07;;;84.20;;
25231;SDS011;13176;51.140;6.290;2022-09-09T04:10:51;87.65;;;82.18;;
25231;SDS011;13176;51.140;6.290;2022-09-09T04:13:19;95.65;;;89.60;;
25231;SDS011;13176;51.140;6.290;2022-09-09T04:15:52;93.70;;;87.88;;
25231;SDS011;13176;51.140;6.290;2022-09-09T04:18:20;90.82;;;84.95;;
25231;SDS011;13176;51.140;6.290;2022-09-09T04:20:47;93.63;;;87.63;;
25231;SDS011;13176;51.140;6.290;2022-09-09T04:23:14;93.88;;;87.95;;
25231;SDS011;13176;51.140;6.290;2022-09-09T04:25:45;87.68;;;82.47;;
25231;SDS011;13176;51.140;6.290;2022-09-09T04:28:13;89.32;;;83.60;;
25231;SDS011;13176;51.140;6.290;2022-09-09T04:30:41;82.68;;;77.55;;
25231;SDS011;13176;51.140;6.290;2022-09-09T04:33:08;85.88;;;80.68;;
25231;SDS011;13176;51.140;6.290;2022-09-09T04:35:36;85.95;;;80.75;;
25231;SDS011;13176;51.140;6.290;2022-09-09T04:38:04;81.88;;;76.72;;
25231;SDS011;13176;51.140;6.290;2022-09-09T04:40:31;83.55;;;78.55;;
25231;SDS011;13176;51.140;6.290;2022-09-09T04:42:58;87.22;;;81.97;;
25231;SDS011;13176;51.140;6.290;2022-09-09T04:45:25;87.78;;;82.50;;
25231;SDS011;13176;51.140;6.290;2022-09-09T04:47:52;89.45;;;83.80;;
25231;SDS011;13176;51.140;6.290;2022-09-09T04:50:19;89.05;;;83.45;;
25231;SDS011;13176;51.140;6.290;2022-09-09T04:52:46;94.28;;;88.47;;
25231;SDS011;13176;51.140;6.290;2022-09-09T04:55:12;87.60;;;82.47;;
25231;SDS011;13176;51.140;6.290;2022-09-09T04:57:39;78.10;;;72.80;;
25231;SDS011;13176;51.140;6.290;2022-09-09T05:00:06;80.28;;;75.32;;
25231;SDS011;13176;51.140;6.290;2022-09-09T05:02:36;79.82;;;74.68;;
25231;SDS011;13176;51.140;6.290;2022-09-09T05:05:05;79.47;;;74.65;;
25231;SDS011;13176;51.140;6.290;2022-09-09T05:07:32;85.40;;;79.93;;
25231;SDS011;13176;51.140;6.290;2022-09-09T05:09:58;79.65;;;74.85;;
25231;SDS011;13176;51.140;6.290;2022-09-09T05:12:25;84.95;;;79.82;;
25231;SDS011;13176;51.140;6.290;2022-09-09T05:14:52;84.22;;;79.10;;
25231;SDS011;13176;51.140;6.290;2022-09-09T05:17:18;85.07;;;79.68;;
25231;SDS011;13176;51.140;6.290;2022-09-09T05:19:45;77.90;;;72.93;;
25231;SDS011;13176;51.140;6.290;2022-09-09T05:22:11;75.38;;;70.93;;
25231;SDS011;13176;51.140;6.290;2022-09-09T05:24:38;71.00;;;66.45;;
25231;SDS011;13176;51.140;6.290;2022-09-09T05:27:04;71.18;;;67.03;;
25231;SDS011;13176;51.140;6.290;2022-09-09T05:29:32;71.45;;;66.50;;
25231;SDS011;13176;51.140;6.290;2022-09-09T05:31:59;67.53;;;63.17;;
25231;SDS011;13176;51.140;6.290;2022-09-09T05:34:26;72.07;;;67.60;;
25231;SDS011;13176;51.140;6.290;2022-09-09T05:36:53;68.72;;;64.80;;
25231;SDS011;13176;51.140;6.290;2022-09-09T05:39:19;72.65;;;68.35;;
25231;SDS011;13176;51.140;6.290;2022-09-09T05:41:46;74.05;;;69.30;;
25231;SDS011;13176;51.140;6.290;2022-09-09T05:44:12;75.22;;;70.57;;
25231;SDS011;13176;51.140;6.290;2022-09-09T05:46:39;79.90;;;74.90;;
25231;SDS011;13176;51.140;6.290;2022-09-09T05:49:05;76.30;;;71.72;;
25231;SDS011;13176;51.140;6.290;2022-09-09T05:51:32;71.63;;;67.28;;
25231;SDS011;13176;51.140;6.290;2022-09-09T05:53:58;70.50;;;66.38;;
25231;SDS011;13176;51.140;6.290;2022-09-09T05:56:25;66.28;;;62.42;;
25231;SDS011;13176;51.140;6.290;2022-09-09T05:58:54;72.63;;;68.10;;
25231;SDS011;13176;51.140;6.290;2022-09-09T06:01:22;64.45;;;60.55;;
25231;SDS011;13176;51.140;6.290;2022-09-09T06:03:49;64.95;;;60.60;;
25231;SDS011;13176;51.140;6.290;2022-09-09T06:06:22;65.35;;;61.25;;
25231;SDS011;13176;51.140;6.290;2022-09-09T06:08:51;63.45;;;59.63;;
25231;SDS011;13176;51.140;6.290;2022-09-09T06:11:20;68.28;;;64.13;;
25231;SDS011;13176;51.140;6.290;2022-09-09T06:13:48;63.60;;;59.45;;
25231;SDS011;13176;51.140;6.290;2022-09-09T06:16:20;61.58;;;57.67;;
25231;SDS011;13176;51.140;6.290;2022-09-09T06:18:49;56.03;;;52.65;;
25231;SDS011;13176;51.140;6.290;2022-09-09T06:21:20;58.97;;;55.35;;
25231;SDS011;13176;51.140;6.290;2022-09-09T06:23:48;54.05;;;50.78;;
25231;SDS011;13176;51.140;6.290;2022-09-09T06:26:16;55.47;;;52.35;;
25231;SDS011;13176;51.140;6.290;2022-09-09T06:28:47;51.92;;;48.58;;
25231;SDS011;13176;51.140;6.290;2022-09-09T06:31:16;55.65;;;52.28;;
25231;SDS011;13176;51.140;6.290;2022-09-09T06:33:44;58.75;;;55.13;;
25231;SDS011;13176;51.140;6.290;2022-09-09T06:36:14;56.90;;;53.45;;
25231;SDS011;13176;51.140;6.290;2022-09-09T06:38:42;57.88;;;54.30;;
25231;SDS011;13176;51.140;6.290;2022-09-09T06:41:09;54.22;;;51.00;;
25231;SDS011;13176;51.140;6.290;2022-09-09T06:43:36;48.83;;;45.83;;
25231;SDS011;13176;51.140;6.290;2022-09-09T06:46:04;47.55;;;44.50;;
25231;SDS011;13176;51.140;6.290;2022-09-09T06:48:31;49.50;;;46.40;;
25231;SDS011;13176;51.140;6.290;2022-09-09T06:51:05;48.92;;;45.92;;
25231;SDS011;13176;51.140;6.290;2022-09-09T06:53:34;48.75;;;45.65;;
25231;SDS011;13176;51.140;6.290;2022-09-09T06:56:02;47.40;;;44.63;;
25231;SDS011;13176;51.140;6.290;2022-09-09T06:58:43;49.28;;;46.00;;
25231;SDS011;13176;51.140;6.290;2022-09-09T07:01:11;48.67;;;45.80;;
25231;SDS011;13176;51.140;6.290;2022-09-09T07:03:40;49.88;;;46.65;;
25231;SDS011;13176;51.140;6.290;2022-09-09T07:06:09;47.72;;;45.00;;
25231;SDS011;13176;51.140;6.290;2022-09-09T07:08:53;44.20;;;41.30;;
25231;SDS011;13176;51.140;6.290;2022-09-09T07:11:22;46.20;;;43.25;;
25231;SDS011;13176;51.140;6.290;2022-09-09T07:13:52;60.47;;;56.78;;
25231;SDS011;13176;51.140;6.290;2022-09-09T07:16:20;53.30;;;50.25;;
25231;SDS011;13176;51.140;6.290;2022-09-09T07:18:50;53.63;;;50.33;;
25231;SDS011;13176;51.140;6.290;2022-09-09T07:21:17;56.38;;;52.95;;
25231;SDS011;13176;51.140;6.290;2022-09-09T07:23:44;51.28;;;47.97;;
25231;SDS011;13176;51.140;6.290;2022-09-09T07:26:15;52.35;;;49.13;;
25231;SDS011;13176;51.140;6.290;2022-09-09T07:28:45;53.83;;;50.50;;
25231;SDS011;13176;51.140;6.290;2022-09-09T07:31:14;50.97;;;47.80;;
25231;SDS011;13176;51.140;6.290;2022-09-09T07:33:44;49.80;;;46.67;;
25231;SDS011;13176;51.140;6.290;2022-09-09T07:38:50;45.78;;;42.75;;
25231;SDS011;13176;51.140;6.290;2022-09-09T07:41:32;44.03;;;41.35;;
25231;SDS011;13176;51.140;6.290;2022-09-09T07:44:09;52.63;;;49.45;;
25231;SDS011;13176;51.140;6.290;2022-09-09T07:46:38;49.00;;;46.03;;
25231;SDS011;13176;51.140;6.290;2022-09-09T07:49:06;44.20;;;41.55;;
25231;SDS011;13176;51.140;6.290;2022-09-09T07:51:34;39.72;;;37.35;;
25231;SDS011;13176;51.140;6.290;2022-09-09T07:54:04;44.58;;;41.90;;
25231;SDS011;13176;51.140;6.290;2022-09-09T07:56:33;43.05;;;40.30;;
25231;SDS011;13176;51.140;6.290;2022-09-09T07:59:00;44.72;;;42.00;;
25231;SDS011;13176;51.140;6.290;2022-09-09T08:01:31;41.47;;;38.53;;
25231;SDS011;13176;51.140;6.290;2022-09-09T08:04:06;37.42;;;35.05;;
25231;SDS011;13176;51.140;6.290;2022-09-09T08:06:35;35.03;;;32.65;;
25231;SDS011;13176;51.140;6.290;2022-09-09T08:09:06;41.17;;;38.53;;
25231;SDS011;13176;51.140;6.290;2022-09-09T08:11:33;32.53;;;30.55;;
25231;SDS011;13176;51.140;6.290;2022-09-09T08:14:05;31.50;;;29.23;;
25231;SDS011;13176;51.140;6.290;2022-09-09T08:16:34;37.67;;;35.38;;
25231;SDS011;13176;51.140;6.290;2022-09-09T08:19:02;33.17;;;30.83;;
25231;SDS011;13176;51.140;6.290;2022-09-09T08:21:30;36.63;;;34.20;;
25231;SDS011;13176;51.140;6.290;2022-09-09T08:23:59;32.20;;;29.98;;
25231;SDS011;13176;51.140;6.290;2022-09-09T08:26:29;28.75;;;26.98;;
25231;SDS011;13176;51.140;6.290;2022-09-09T08:28:57;27.73;;;25.85;;
25231;SDS011;13176;51.140;6.290;2022-09-09T08:31:26;24.40;;;22.95;;
25231;SDS011;13176;51.140;6.290;2022-09-09T08:33:54;27.08;;;24.70;;
25231;SDS011;13176;51.140;6.290;2022-09-09T08:36:23;22.45;;;20.60;;
25231;SDS011;13176;51.140;6.290;2022-09-09T08:38:52;19.88;;;18.52;;
25231;SDS011;13176;51.140;6.290;2022-09-09T08:44:07;17.92;;;16.65;;
25231;SDS011;13176;51.140;6.290;2022-09-09T08:52:21;20.40;;;19.13;;
25231;SDS011;13176;51.140;6.290;2022-09-09T08:54:54;26.13;;;24.37;;
25231;SDS011;13176;51.140;6.290;2022-09-09T08:57:26;18.98;;;17.77;;
25231;SDS011;13176;51.140;6.290;2022-09-09T08:59:54;18.75;;;17.20;;
25231;SDS011;13176;51.140;6.290;2022-09-09T09:02:40;19.95;;;18.23;;
25231;SDS011;13176;51.140;6.290;2022-09-09T09:05:19;17.60;;;16.42;;
25231;SDS011;13176;51.140;6.290;2022-09-09T09:08:03;17.58;;;16.40;;
25231;SDS011;13176;51.140;6.290;2022-09-09T09:10:48;21.30;;;19.75;;
25231;SDS011;13176;51.140;6.290;2022-09-09T09:16:17;16.73;;;15.43;;
25231;SDS011;13176;51.140;6.290;2022-09-09T09:18:49;17.05;;;15.82;;
25231;SDS011;13176;51.140;6.290;2022-09-09T09:21:32;19.65;;;18.42;;
25231;SDS011;13176;51.140;6.290;2022-09-09T09:24:06;22.00;;;20.45;;
25231;SDS011;13176;51.140;6.290;2022-09-09T09:26:47;20.45;;;19.13;;
25231;SDS011;13176;51.140;6.290;2022-09-09T09:29:17;22.15;;;20.83;;
25231;SDS011;13176;51.140;6.290;2022-09-09T09:31:46;19.67;;;18.20;;
25231;SDS011;13176;51.140;6.290;2022-09-09T09:34:18;19.98;;;18.63;;
25231;SDS011;13176;51.140;6.290;2022-09-09T09:36:45;21.30;;;19.77;;
25231;SDS011;13176;51.140;6.290;2022-09-09T09:39:22;21.63;;;20.27;;
25231;SDS011;13176;51.140;6.290;2022-09-09T09:42:16;25.75;;;24.15;;
25231;SDS011;13176;51.140;6.290;2022-09-09T09:44:48;24.80;;;23.30;;
25231;SDS011;13176;51.140;6.290;2022-09-09T09:47:19;22.80;;;21.30;;
25231;SDS011;13176;51.140;6.290;2022-09-09T09:52:26;19.88;;;18.27;;
25231;SDS011;13176;51.140;6.290;2022-09-09T09:54:55;17.60;;;16.42;;
25231;SDS011;13176;51.140;6.290;2022-09-09T09:57:30;18.08;;;16.92;;
25231;SDS011;13176;51.140;6.290;2022-09-09T10:00:04;17.80;;;16.35;;
25231;SDS011;13176;51.140;6.290;2022-09-09T10:02:40;21.95;;;20.52;;
25231;SDS011;13176;51.140;6.290;2022-09-09T10:05:14;24.15;;;22.75;;
25231;SDS011;13176;51.140;6.290;2022-09-09T10:08:05;27.98;;;26.35;;
25231;SDS011;13176;51.140;6.290;2022-09-09T10:13:36;14.47;;;13.70;;
25231;SDS011;13176;51.140;6.290;2022-09-09T10:19:01;13.43;;;12.40;;
25231;SDS011;13176;51.140;6.290;2022-09-09T10:35:33;14.40;;;13.40;;
25231;SDS011;13176;51.140;6.290;2022-09-09T10:38:12;13.60;;;12.60;;
25231;SDS011;13176;51.140;6.290;2022-09-09T10:57:26;13.57;;;12.43;;
25231;SDS011;13176;51.140;6.290;2022-09-09T11:00:05;11.38;;;10.48;;
25231;SDS011;13176;51.140;6.290;2022-09-09T11:02:40;14.30;;;13.40;;
25231;SDS011;13176;51.140;6.290;2022-09-09T11:05:27;13.15;;;12.35;;
25231;SDS011;13176;51.140;6.290;2022-09-09T11:18:47;12.68;;;11.70;;
25231;SDS011;13176;51.140;6.290;2022-09-09T11:21:18;10.60;;;10.00;;
25231;SDS011;13176;51.140;6.290;2022-09-09T11:23:56;10.23;;;9.73;;
25231;SDS011;13176;51.140;6.290;2022-09-09T11:26:37;11.35;;;10.63;;
25231;SDS011;13176;51.140;6.290;2022-09-09T11:40:31;12.30;;;11.10;;
25231;SDS011;13176;51.140;6.290;2022-09-09T11:43:02;14.45;;;13.35;;
25231;SDS011;13176;51.140;6.290;2022-09-09T11:45:32;11.63;;;10.63;;
25231;SDS011;13176;51.140;6.290;2022-09-09T11:48:02;14.07;;;13.10;;
25231;SDS011;13176;51.140;6.290;2022-09-09T11:50:34;18.48;;;16.75;;
25231;SDS011;13176;51.140;6.290;2022-09-09T11:53:18;23.17;;;21.65;;
25231;SDS011;13176;51.140;6.290;2022-09-09T11:56:05;23.48;;;21.67;;
25231;SDS011;13176;51.140;6.290;2022-09-09T11:58:38;21.65;;;20.33;;
25231;SDS011;13176;51.140;6.290;2022-09-09T12:04:01;33.28;;;31.23;;
25231;SDS011;13176;51.140;6.290;2022-09-09T12:06:44;37.13;;;34.88;;
25231;SDS011;13176;51.140;6.290;2022-09-09T12:09:46;42.80;;;40.30;;
25231;SDS011;13176;51.140;6.290;2022-09-09T12:19:42;51.25;;;48.17;;
25231;SDS011;13176;51.140;6.290;2022-09-09T12:22:18;56.40;;;52.95;;
25231;SDS011;13176;51.140;6.290;2022-09-09T12:27:58;58.90;;;55.03;;
25231;SDS011;13176;51.140;6.290;2022-09-09T12:33:12;57.22;;;53.90;;
25231;SDS011;13176;51.140;6.290;2022-09-09T12:35:43;75.82;;;71.28;;
25231;SDS011;13176;51.140;6.290;2022-09-09T12:38:17;75.22;;;70.43;;
25231;SDS011;13176;51.140;6.290;2022-09-09T12:40:55;74.90;;;70.47;;
25231;SDS011;13176;51.140;6.290;2022-09-09T12:43:23;68.78;;;64.75;;
25231;SDS011;13176;51.140;6.290;2022-09-09T12:45:52;80.57;;;75.78;;
25231;SDS011;13176;51.140;6.290;2022-09-09T12:48:35;81.00;;;75.95;;
25231;SDS011;13176;51.140;6.290;2022-09-09T12:51:05;78.28;;;73.85;;
25231;SDS011;13176;51.140;6.290;2022-09-09T12:53:42;82.45;;;77.40;;
25231;SDS011;13176;51.140;6.290;2022-09-09T12:56:19;81.30;;;76.32;;
25231;SDS011;13176;51.140;6.290;2022-09-09T12:58:47;78.57;;;73.97;;
25231;SDS011;13176;51.140;6.290;2022-09-09T13:01:20;75.53;;;71.07;;
25231;SDS011;13176;51.140;6.290;2022-09-09T13:03:55;72.32;;;68.05;;
25231;SDS011;13176;51.140;6.290;2022-09-09T13:06:23;70.72;;;66.53;;
25231;SDS011;13176;51.140;6.290;2022-09-09T13:08:55;52.08;;;48.88;;
25231;SDS011;13176;51.140;6.290;2022-09-09T13:11:33;51.15;;;48.00;;
25231;SDS011;13176;51.140;6.290;2022-09-09T13:14:05;46.92;;;44.20;;
25231;SDS011;13176;51.140;6.290;2022-09-09T13:16:33;53.95;;;50.67;;
25231;SDS011;13176;51.140;6.290;2022-09-09T13:19:08;43.70;;;41.05;;
25231;SDS011;13176;51.140;6.290;2022-09-09T13:21:40;40.63;;;38.03;;
25231;SDS011;13176;51.140;6.290;2022-09-09T13:24:29;48.15;;;45.35;;
25231;SDS011;13176;51.140;6.290;2022-09-09T13:26:56;56.95;;;53.60;;
25231;SDS011;13176;51.140;6.290;2022-09-09T13:29:24;62.88;;;59.15;;
25231;SDS011;13176;51.140;6.290;2022-09-09T13:31:53;53.30;;;50.20;;
25231;SDS011;13176;51.140;6.290;2022-09-09T13:34:28;45.33;;;42.72;;
25231;SDS011;13176;51.140;6.290;2022-09-09T13:37:00;43.20;;;40.80;;
25231;SDS011;13176;51.140;6.290;2022-09-09T13:39:28;39.63;;;37.47;;
25231;SDS011;13176;51.140;6.290;2022-09-09T13:41:55;37.90;;;35.75;;
25231;SDS011;13176;51.140;6.290;2022-09-09T13:44:27;39.90;;;37.53;;
25231;SDS011;13176;51.140;6.290;2022-09-09T13:47:00;31.25;;;29.15;;
25231;SDS011;13176;51.140;6.290;2022-09-09T13:49:35;32.30;;;29.80;;
25231;SDS011;13176;51.140;6.290;2022-09-09T13:54:42;31.90;;;30.23;;
25231;SDS011;13176;51.140;6.290;2022-09-09T13:57:16;40.40;;;37.97;;
25231;SDS011;13176;51.140;6.290;2022-09-09T13:59:48;43.53;;;41.05;;
25231;SDS011;13176;51.140;6.290;2022-09-09T14:02:30;50.20;;;47.47;;
25231;SDS011;13176;51.140;6.290;2022-09-09T14:04:57;59.95;;;56.55;;
25231;SDS011;13176;51.140;6.290;2022-09-09T14:07:23;64.47;;;60.85;;
25231;SDS011;13176;51.140;6.290;2022-09-09T14:09:51;65.28;;;61.67;;
25231;SDS011;13176;51.140;6.290;2022-09-09T14:12:18;62.63;;;59.10;;
25231;SDS011;13176;51.140;6.290;2022-09-09T14:14:44;71.60;;;67.60;;
25231;SDS011;13176;51.140;6.290;2022-09-09T14:17:11;73.80;;;69.45;;
25231;SDS011;13176;51.140;6.290;2022-09-09T14:19:37;68.50;;;64.60;;
25231;SDS011;13176;51.140;6.290;2022-09-09T14:22:04;78.25;;;73.70;;
25231;SDS011;13176;51.140;6.290;2022-09-09T14:24:30;98.72;;;93.03;;
25231;SDS011;13176;51.140;6.290;2022-09-09T14:26:56;102.50;;;96.65;;
25231;SDS011;13176;51.140;6.290;2022-09-09T14:29:23;94.30;;;88.95;;
25231;SDS011;13176;51.140;6.290;2022-09-09T14:31:51;78.45;;;73.97;;
25231;SDS011;13176;51.140;6.290;2022-09-09T14:34:17;79.75;;;75.22;;
25231;SDS011;13176;51.140;6.290;2022-09-09T14:36:44;76.03;;;71.72;;
25231;SDS011;13176;51.140;6.290;2022-09-09T14:39:11;83.22;;;78.30;;
25231;SDS011;13176;51.140;6.290;2022-09-09T14:41:38;76.80;;;72.38;;
25231;SDS011;13176;51.140;6.290;2022-09-09T14:44:04;84.45;;;79.40;;
25231;SDS011;13176;51.140;6.290;2022-09-09T14:46:30;75.97;;;71.60;;
25231;SDS011;13176;51.140;6.290;2022-09-09T14:48:59;76.85;;;72.55;;
25231;SDS011;13176;51.140;6.290;2022-09-09T14:51:25;80.82;;;76.13;;
25231;SDS011;13176;51.140;6.290;2022-09-09T14:53:55;77.07;;;72.70;;
25231;SDS011;13176;51.140;6.290;2022-09-09T14:56:25;74.13;;;69.57;;
25231;SDS011;13176;51.140;6.290;2022-09-09T14:58:54;77.75;;;73.22;;
25231;SDS011;13176;51.140;6.290;2022-09-09T15:01:24;84.03;;;78.93;;
25231;SDS011;13176;51.140;6.290;2022-09-09T15:03:54;82.57;;;77.57;;
25231;SDS011;13176;51.140;6.290;2022-09-09T15:06:24;78.25;;;73.72;;
25231;SDS011;13176;51.140;6.290;2022-09-09T15:08:52;82.15;;;77.30;;
25231;SDS011;13176;51.140;6.290;2022-09-09T15:11:19;83.55;;;78.70;;
25231;SDS011;13176;51.140;6.290;2022-09-09T15:13:47;84.93;;;79.85;;
25231;SDS011;13176;51.140;6.290;2022-09-09T15:16:19;77.70;;;73.03;;
25231;SDS011;13176;51.140;6.290;2022-09-09T15:18:46;65.72;;;61.80;;
25231;SDS011;13176;51.140;6.290;2022-09-09T15:21:16;54.70;;;51.53;;
25231;SDS011;13176;51.140;6.290;2022-09-09T15:23:48;61.72;;;58.10;;
25231;SDS011;13176;51.140;6.290;2022-09-09T15:26:15;69.95;;;65.65;;
25231;SDS011;13176;51.140;6.290;2022-09-09T15:28:41;64.47;;;60.78;;
25231;SDS011;13176;51.140;6.290;2022-09-09T15:31:20;67.07;;;63.03;;
25231;SDS011;13176;51.140;6.290;2022-09-09T15:36:20;55.47;;;52.30;;
25231;SDS011;13176;51.140;6.290;2022-09-09T15:38:48;47.15;;;44.53;;
25231;SDS011;13176;51.140;6.290;2022-09-09T15:41:15;46.78;;;43.97;;
25231;SDS011;13176;51.140;6.290;2022-09-09T15:43:43;41.15;;;38.85;;
25231;SDS011;13176;51.140;6.290;2022-09-09T15:48:45;41.03;;;38.55;;
25231;SDS011;13176;51.140;6.290;2022-09-09T15:51:16;43.78;;;40.63;;
25231;SDS011;13176;51.140;6.290;2022-09-09T15:54:02;45.38;;;42.78;;
25231;SDS011;13176;51.140;6.290;2022-09-09T15:56:29;49.50;;;46.78;;
25231;SDS011;13176;51.140;6.290;2022-09-09T15:58:56;44.75;;;42.20;;
25231;SDS011;13176;51.140;6.290;2022-09-09T16:01:23;50.03;;;46.95;;
25231;SDS011;13176;51.140;6.290;2022-09-09T16:03:51;45.22;;;42.58;;
25231;SDS011;13176;51.140;6.290;2022-09-09T16:06:18;44.20;;;41.33;;
25231;SDS011;13176;51.140;6.290;2022-09-09T16:08:48;62.28;;;58.33;;
25231;SDS011;13176;51.140;6.290;2022-09-09T16:13:55;69.38;;;64.85;;
25231;SDS011;13176;51.140;6.290;2022-09-09T16:16:23;60.45;;;56.75;;
25231;SDS011;13176;51.140;6.290;2022-09-09T16:18:52;69.13;;;64.60;;
25231;SDS011;13176;51.140;6.290;2022-09-09T16:21:22;73.47;;;68.97;;
25231;SDS011;13176;51.140;6.290;2022-09-09T16:24:00;77.55;;;72.80;;
25231;SDS011;13176;51.140;6.290;2022-09-09T16:26:29;76.15;;;71.38;;
25231;SDS011;13176;51.140;6.290;2022-09-09T16:28:57;74.50;;;70.15;;
25231;SDS011;13176;51.140;6.290;2022-09-09T16:31:27;74.55;;;70.13;;
25231;SDS011;13176;51.140;6.290;2022-09-09T16:33:55;79.50;;;74.65;;
25231;SDS011;13176;51.140;6.290;2022-09-09T16:36:22;73.38;;;68.88;;
25231;SDS011;13176;51.140;6.290;2022-09-09T16:38:54;74.13;;;69.82;;
25231;SDS011;13176;51.140;6.290;2022-09-09T16:41:23;84.03;;;78.95;;
25231;SDS011;13176;51.140;6.290;2022-09-09T16:43:55;83.55;;;78.30;;
25231;SDS011;13176;51.140;6.290;2022-09-09T16:46:22;89.78;;;84.35;;
25231;SDS011;13176;51.140;6.290;2022-09-09T16:48:50;84.30;;;79.22;;
25231;SDS011;13176;51.140;6.290;2022-09-09T16:51:24;86.53;;;81.32;;
25231;SDS011;13176;51.140;6.290;2022-09-09T16:53:57;87.85;;;82.60;;
25231;SDS011;13176;51.140;6.290;2022-09-09T16:56:25;85.55;;;80.25;;
25231;SDS011;13176;51.140;6.290;2022-09-09T16:58:54;85.05;;;79.90;;
25231;SDS011;13176;51.140;6.290;2022-09-09T17:01:27;78.65;;;74.05;;
25231;SDS011;13176;51.140;6.290;2022-09-09T17:03:55;76.50;;;71.93;;
25231;SDS011;13176;51.140;6.290;2022-09-09T17:06:26;75.45;;;71.00;;